Coolgardie, Australia
Current Conditions -  °F | °C
As of 7:00 PM on Friday 24 Oct 2014 (Local Time) from YPKG Reporting Station
Clear Clear  
Wind Chill: 77°   Ceiling: Unl
Heat Index: 78°   Visibility: NA
Dew Point: 45°   Wind: 8mph
Humidity: 32%   Direction: 140°SE
Pressure: 29.94"   Gusts: NA
Location:  30.95°S, 121.17°E
Report Text: YPKG 241100Z AUTO 14007KT //// // NCD 25/07 Q1014
Loading
Personal Weather Stations






























Interactive Weather Map
Tropical Storm Tracking
New forecast layout! Learn more

10-Day Weather Forecast

Advertisements
Track Severe Weather on mobile